createdAt,value
2016-08-26T00:00:46.091Z,0
2016-08-26T00:01:46.113Z,0
2016-08-26T00:02:46.120Z,0
2016-08-26T00:03:46.799Z,0
2016-08-26T00:04:46.086Z,0
2016-08-26T00:05:46.093Z,0
2016-08-26T00:06:46.100Z,0
2016-08-26T00:07:46.062Z,0
2016-08-26T00:08:46.043Z,0
2016-08-26T00:09:46.065Z,0
2016-08-26T00:10:46.070Z,0
2016-08-26T00:11:46.068Z,0
2016-08-26T00:12:46.057Z,0
2016-08-26T00:13:46.048Z,0
2016-08-26T00:14:46.014Z,0
2016-08-26T00:15:46.023Z,0
2016-08-26T00:16:46.055Z,0
2016-08-26T00:17:46.041Z,0
2016-08-26T00:18:46.031Z,0
2016-08-26T00:19:46.009Z,0
2016-08-26T00:20:46.015Z,0
2016-08-26T00:21:45.993Z,0
2016-08-26T00:22:46.675Z,0
2016-08-26T00:23:45.991Z,0
2016-08-26T00:24:46.001Z,0
2016-08-26T00:25:45.979Z,0
2016-08-26T00:26:45.975Z,0
2016-08-26T00:27:46.000Z,0
2016-08-26T00:28:45.985Z,0
2016-08-26T00:29:45.985Z,0
2016-08-26T00:30:45.949Z,0
2016-08-26T00:31:45.983Z,0
2016-08-26T00:32:45.961Z,0
2016-08-26T00:33:45.949Z,0
2016-08-26T00:34:45.943Z,0
2016-08-26T00:35:45.933Z,0
2016-08-26T00:36:45.935Z,0
2016-08-26T00:37:45.924Z,0
2016-08-26T00:38:45.937Z,0
2016-08-26T00:39:45.924Z,0
2016-08-26T00:40:45.919Z,0
2016-08-26T00:41:45.902Z,0
2016-08-26T00:42:45.915Z,0
2016-08-26T00:43:45.896Z,0
2016-08-26T00:44:45.907Z,0
2016-08-26T00:45:45.897Z,0
2016-08-26T00:46:45.911Z,0
2016-08-26T00:47:45.879Z,0
2016-08-26T00:48:45.854Z,0
2016-08-26T00:49:45.878Z,0
2016-08-26T00:50:45.882Z,0
2016-08-26T00:51:45.866Z,0
2016-08-26T00:52:45.858Z,0
2016-08-26T00:53:45.855Z,0
2016-08-26T00:54:45.850Z,0
2016-08-26T00:55:45.816Z,0
2016-08-26T00:56:45.847Z,0
2016-08-26T00:57:45.859Z,0
2016-08-26T00:58:45.823Z,0
2016-08-26T00:59:45.821Z,0
2016-08-26T01:00:45.806Z,0
2016-08-26T01:01:45.821Z,0
2016-08-26T01:02:45.806Z,0
2016-08-26T01:03:45.829Z,0
2016-08-26T01:04:45.818Z,0
2016-08-26T01:05:45.779Z,0
2016-08-26T01:06:45.796Z,0
2016-08-26T01:07:45.820Z,0
2016-08-26T01:08:45.779Z,0
2016-08-26T01:09:45.805Z,0
2016-08-26T01:10:46.717Z,0
2016-08-26T01:11:45.766Z,0
2016-08-26T01:12:45.770Z,0
2016-08-26T01:13:45.778Z,0
2016-08-26T01:14:45.791Z,0
2016-08-26T01:15:45.742Z,0
2016-08-26T01:16:45.766Z,0
2016-08-26T01:17:45.725Z,0
2016-08-26T01:18:45.743Z,0
2016-08-26T01:19:45.724Z,0
2016-08-26T01:20:45.741Z,0
2016-08-26T01:21:45.757Z,0
2016-08-26T01:22:45.723Z,0
2016-08-26T01:23:45.724Z,0
2016-08-26T01:24:45.717Z,0
2016-08-26T01:25:45.692Z,0
2016-08-26T01:26:45.727Z,0
2016-08-26T01:27:45.689Z,0
2016-08-26T01:28:45.681Z,0
2016-08-26T01:29:45.708Z,0
2016-08-26T01:30:45.692Z,0
2016-08-26T01:31:45.679Z,0
2016-08-26T01:32:45.685Z,0
2016-08-26T01:33:45.673Z,0
2016-08-26T01:34:45.691Z,0
2016-08-26T01:35:45.660Z,0
2016-08-26T01:36:45.667Z,0
2016-08-26T01:37:45.668Z,0
2016-08-26T01:38:45.643Z,0
2016-08-26T01:39:45.662Z,0
2016-08-26T01:40:45.673Z,0
2016-08-26T01:41:45.603Z,0
2016-08-26T01:42:45.655Z,0
2016-08-26T01:43:45.640Z,0
2016-08-26T01:44:45.621Z,0
2016-08-26T01:45:45.619Z,0
2016-08-26T01:46:45.592Z,0
2016-08-26T01:47:45.599Z,0
2016-08-26T01:48:45.593Z,0
2016-08-26T01:49:45.576Z,0
2016-08-26T01:50:45.571Z,0
2016-08-26T01:51:45.577Z,0
2016-08-26T01:52:45.574Z,0
2016-08-26T01:53:45.571Z,0
2016-08-26T01:54:45.582Z,0
2016-08-26T01:55:45.587Z,0
2016-08-26T01:56:45.521Z,0
2016-08-26T01:57:45.521Z,0
2016-08-26T01:58:45.548Z,0
2016-08-26T01:59:45.537Z,0
2016-08-26T02:00:45.529Z,0
2016-08-26T02:01:45.523Z,0
2016-08-26T02:02:45.528Z,0
2016-08-26T02:03:46.951Z,0
2016-08-26T02:04:45.507Z,0
2016-08-26T02:05:45.525Z,0
2016-08-26T02:06:45.534Z,0
2016-08-26T02:07:45.481Z,0
2016-08-26T02:08:45.500Z,0
2016-08-26T02:09:45.502Z,0
2016-08-26T02:10:45.513Z,0
2016-08-26T02:11:45.539Z,0
2016-08-26T02:12:45.487Z,0
2016-08-26T02:13:45.490Z,0
2016-08-26T02:14:45.486Z,0
2016-08-26T02:15:45.468Z,0
2016-08-26T02:16:45.435Z,0
2016-08-26T02:17:45.441Z,0
2016-08-26T02:18:45.455Z,0
2016-08-26T02:19:45.446Z,0
2016-08-26T02:20:45.457Z,0
2016-08-26T02:21:45.437Z,0
2016-08-26T02:22:45.433Z,0
2016-08-26T02:23:45.423Z,0
2016-08-26T02:24:45.427Z,0
2016-08-26T02:25:45.429Z,0
2016-08-26T02:26:45.391Z,0
2016-08-26T02:27:45.371Z,0
2016-08-26T02:28:45.397Z,0
2016-08-26T02:29:45.384Z,0
2016-08-26T02:30:45.403Z,0
2016-08-26T02:31:45.363Z,0
2016-08-26T02:32:45.366Z,0
2016-08-26T02:33:45.406Z,0
2016-08-26T02:34:45.380Z,0
2016-08-26T02:35:45.362Z,0
2016-08-26T02:36:45.339Z,0
2016-08-26T02:37:45.339Z,0
2016-08-26T02:38:45.338Z,0
2016-08-26T02:39:45.361Z,0
2016-08-26T02:40:45.370Z,0
2016-08-26T02:41:45.341Z,0
2016-08-26T02:42:45.333Z,0
2016-08-26T02:43:45.319Z,0
2016-08-26T02:44:45.340Z,0
2016-08-26T02:45:45.321Z,0
2016-08-26T02:46:45.316Z,0
2016-08-26T02:47:45.323Z,0
2016-08-26T02:48:45.298Z,0
2016-08-26T02:49:45.269Z,0
2016-08-26T02:50:45.307Z,0
2016-08-26T02:51:45.288Z,0
2016-08-26T02:52:45.306Z,0
2016-08-26T02:53:45.248Z,0
2016-08-26T02:54:45.291Z,0
2016-08-26T02:55:45.246Z,0
2016-08-26T02:56:45.260Z,0
2016-08-26T02:57:45.243Z,0
2016-08-26T02:58:45.278Z,0
2016-08-26T02:59:45.245Z,0
2016-08-26T03:00:45.245Z,0
2016-08-26T03:01:45.238Z,0
2016-08-26T03:02:45.233Z,0
2016-08-26T03:03:45.234Z,0
2016-08-26T03:04:45.213Z,0
2016-08-26T03:05:45.204Z,0
2016-08-26T03:06:45.221Z,0
2016-08-26T03:07:45.197Z,0
2016-08-26T03:08:45.212Z,0
2016-08-26T03:09:45.225Z,0
2016-08-26T03:10:45.208Z,0
2016-08-26T03:11:45.209Z,0
2016-08-26T03:12:45.196Z,0
2016-08-26T03:13:45.201Z,0
2016-08-26T03:14:45.215Z,0
2016-08-26T03:15:45.863Z,0
2016-08-26T03:16:45.184Z,0
2016-08-26T03:17:45.176Z,0
2016-08-26T03:18:45.186Z,0
2016-08-26T03:19:45.155Z,0
2016-08-26T03:20:45.147Z,0
2016-08-26T03:21:45.844Z,0
2016-08-26T03:22:45.134Z,0
2016-08-26T03:23:45.134Z,0
2016-08-26T03:24:45.154Z,0
2016-08-26T03:25:45.151Z,0
2016-08-26T03:26:45.129Z,0
2016-08-26T03:27:45.112Z,0
2016-08-26T03:28:45.122Z,0
2016-08-26T03:29:45.116Z,0
2016-08-26T03:30:45.100Z,0
2016-08-26T03:31:45.125Z,0
2016-08-26T03:32:45.119Z,0
2016-08-26T03:33:45.136Z,0
2016-08-26T03:34:45.122Z,0
2016-08-26T03:35:45.121Z,0
2016-08-26T03:36:45.079Z,0
2016-08-26T03:37:45.111Z,0
2016-08-26T03:38:45.061Z,0
2016-08-26T03:39:45.057Z,0
2016-08-26T03:40:45.074Z,0
2016-08-26T03:41:45.095Z,0
2016-08-26T03:42:45.067Z,0
2016-08-26T03:43:45.069Z,0
2016-08-26T03:44:45.064Z,0
2016-08-26T03:45:45.105Z,0
2016-08-26T03:46:45.036Z,0
2016-08-26T03:47:45.063Z,0
2016-08-26T03:48:45.026Z,0
2016-08-26T03:49:45.028Z,0
2016-08-26T03:50:45.038Z,0
2016-08-26T03:51:44.998Z,0
2016-08-26T03:52:45.058Z,0
2016-08-26T03:53:45.022Z,0
2016-08-26T03:54:45.013Z,0
2016-08-26T03:55:45.011Z,0
2016-08-26T03:56:44.967Z,0
2016-08-26T03:57:45.012Z,0
2016-08-26T03:58:45.017Z,0
2016-08-26T03:59:44.994Z,0
2016-08-26T04:00:44.983Z,0
2016-08-26T04:01:45.697Z,0
2016-08-26T04:02:44.999Z,0
2016-08-26T04:03:44.973Z,0
2016-08-26T04:04:44.972Z,0
2016-08-26T04:05:44.961Z,0
2016-08-26T04:06:44.942Z,0
2016-08-26T04:07:44.970Z,0
2016-08-26T04:08:44.982Z,0
2016-08-26T04:09:44.951Z,0
2016-08-26T04:10:44.944Z,0
2016-08-26T04:11:45.092Z,0
2016-08-26T04:12:44.913Z,5
2016-08-26T04:13:44.892Z,5
2016-08-26T04:14:44.911Z,5
2016-08-26T04:15:44.902Z,5
2016-08-26T04:16:44.893Z,10
2016-08-26T04:17:44.862Z,10
2016-08-26T04:18:44.902Z,10
2016-08-26T04:19:44.892Z,10
2016-08-26T04:20:44.871Z,15
2016-08-26T04:21:44.885Z,15
2016-08-26T04:22:44.877Z,20
2016-08-26T04:23:44.860Z,20
2016-08-26T04:24:44.836Z,25
2016-08-26T04:25:44.846Z,25
2016-08-26T04:26:44.854Z,30
2016-08-26T04:27:44.814Z,30
2016-08-26T04:28:44.827Z,35
2016-08-26T04:29:44.835Z,35
2016-08-26T04:30:44.817Z,40
2016-08-26T04:31:44.821Z,45
2016-08-26T04:32:44.824Z,45
2016-08-26T04:33:44.817Z,50
2016-08-26T04:34:44.810Z,55
2016-08-26T04:35:44.781Z,60
2016-08-26T04:36:44.804Z,60
2016-08-26T04:37:44.784Z,65
2016-08-26T04:38:44.802Z,70
2016-08-26T04:39:44.790Z,75
2016-08-26T04:40:44.776Z,80
2016-08-26T04:41:44.753Z,80
2016-08-26T04:42:44.738Z,85
2016-08-26T04:43:44.742Z,90
2016-08-26T04:44:44.747Z,95
2016-08-26T04:45:44.750Z,100
2016-08-26T04:46:44.740Z,105
2016-08-26T04:47:44.733Z,120
2016-08-26T04:48:44.720Z,135
2016-08-26T04:49:44.711Z,140
2016-08-26T04:50:44.706Z,140
2016-08-26T04:51:44.707Z,135
2016-08-26T04:52:44.721Z,135
2016-08-26T04:53:45.387Z,135
2016-08-26T04:54:44.688Z,140
2016-08-26T04:55:44.683Z,145
2016-08-26T04:56:44.688Z,170
2016-08-26T04:57:44.694Z,215
2016-08-26T04:58:44.697Z,230
2016-08-26T04:59:44.675Z,230
2016-08-26T05:00:44.668Z,235
2016-08-26T05:01:44.649Z,245
2016-08-26T05:02:44.661Z,265
2016-08-26T05:03:44.674Z,280
2016-08-26T05:04:44.642Z,290
2016-08-26T05:05:44.629Z,290
2016-08-26T05:06:44.653Z,320
2016-08-26T05:07:44.607Z,335
2016-08-26T05:08:44.632Z,345
2016-08-26T05:09:44.632Z,365
2016-08-26T05:10:44.595Z,370
2016-08-26T05:11:44.637Z,365
2016-08-26T05:12:44.608Z,350
2016-08-26T05:13:44.613Z,345
2016-08-26T05:14:44.599Z,370
2016-08-26T05:15:44.611Z,405
2016-08-26T05:16:44.598Z,460
2016-08-26T05:17:44.577Z,495
2016-08-26T05:18:44.572Z,500
2016-08-26T05:19:44.577Z,510
2016-08-26T05:20:44.557Z,515
2016-08-26T05:21:44.567Z,550
2016-08-26T05:22:44.574Z,565
2016-08-26T05:23:44.567Z,580
2016-08-26T05:24:44.570Z,595
2016-08-26T05:25:44.523Z,595
2016-08-26T05:26:44.533Z,575
2016-08-26T05:27:44.536Z,565
2016-08-26T05:28:44.539Z,580
2016-08-26T05:29:44.535Z,595
2016-08-26T05:30:44.516Z,600
2016-08-26T05:31:44.514Z,615
2016-08-26T05:32:44.491Z,630
2016-08-26T05:33:44.502Z,625
2016-08-26T05:34:44.496Z,610
2016-08-26T05:35:44.495Z,580
2016-08-26T05:36:44.507Z,540
2016-08-26T05:37:44.467Z,520
2016-08-26T05:38:44.477Z,520
2016-08-26T05:39:44.483Z,585
2016-08-26T05:40:44.474Z,685
2016-08-26T05:41:44.471Z,700
2016-08-26T05:42:44.472Z,790
2016-08-26T05:43:44.433Z,810
2016-08-26T05:44:44.432Z,800
2016-08-26T05:45:44.424Z,845
2016-08-26T05:46:44.432Z,815
2016-08-26T05:47:44.445Z,735
2016-08-26T05:48:44.441Z,745
2016-08-26T05:49:44.438Z,700
2016-08-26T05:50:44.434Z,675
2016-08-26T05:51:44.385Z,810
2016-08-26T05:52:44.404Z,900
2016-08-26T05:53:44.394Z,920
2016-08-26T05:54:44.423Z,860
2016-08-26T05:55:44.434Z,860
2016-08-26T05:56:44.383Z,885
2016-08-26T05:57:44.408Z,870
2016-08-26T05:58:44.391Z,890
2016-08-26T05:59:44.385Z,910
2016-08-26T06:00:44.405Z,970
2016-08-26T06:01:44.362Z,1045
2016-08-26T06:02:44.559Z,960
2016-08-26T06:03:44.352Z,995
2016-08-26T06:04:44.368Z,1025
2016-08-26T06:05:44.369Z,935
2016-08-26T06:06:44.345Z,965
2016-08-26T06:07:44.384Z,1015
2016-08-26T06:08:44.374Z,1035
2016-08-26T06:09:44.308Z,1080
2016-08-26T06:10:44.295Z,1105
2016-08-26T06:11:44.373Z,1015
2016-08-26T06:12:44.335Z,1050
2016-08-26T06:13:44.307Z,1115
2016-08-26T06:14:44.320Z,1120
2016-08-26T06:15:44.314Z,1145
2016-08-26T06:16:44.297Z,1195
2016-08-26T06:17:44.295Z,1065
2016-08-26T06:18:44.283Z,1135
2016-08-26T06:19:44.283Z,1165
2016-08-26T06:20:44.283Z,1195
2016-08-26T06:21:44.244Z,1120
2016-08-26T06:22:44.285Z,1125
2016-08-26T06:23:44.242Z,1215
2016-08-26T06:24:44.265Z,1370
2016-08-26T06:25:44.244Z,1285
2016-08-26T06:26:44.255Z,1125
2016-08-26T06:27:44.238Z,1235
2016-08-26T06:28:44.211Z,1290
2016-08-26T06:29:44.239Z,1310
2016-08-26T06:30:44.237Z,1230
2016-08-26T06:31:44.963Z,1310
2016-08-26T06:32:44.215Z,1350
2016-08-26T06:33:44.244Z,1340
2016-08-26T06:34:44.220Z,1315
2016-08-26T06:35:44.211Z,1280
2016-08-26T06:36:44.210Z,1345
2016-08-26T06:37:44.196Z,1360
2016-08-26T06:38:44.201Z,1520
2016-08-26T06:39:44.163Z,1610
2016-08-26T06:40:44.207Z,1505
2016-08-26T06:41:44.179Z,1515
2016-08-26T06:42:44.180Z,1590
2016-08-26T06:43:44.188Z,1690
2016-08-26T06:44:44.196Z,1660
2016-08-26T06:45:44.153Z,1640
2016-08-26T06:46:44.151Z,1705
2016-08-26T06:47:44.150Z,1985
2016-08-26T06:48:44.166Z,1840
2016-08-26T06:49:44.154Z,1670
2016-08-26T06:50:44.125Z,1740
2016-08-26T06:51:44.118Z,1745
2016-08-26T06:52:44.111Z,1740
2016-08-26T06:53:44.118Z,1880
2016-08-26T06:54:44.094Z,1925
2016-08-26T06:55:44.104Z,1825
2016-08-26T06:56:44.094Z,1785
2016-08-26T06:57:44.096Z,1840
2016-08-26T06:58:44.091Z,1855
2016-08-26T06:59:44.106Z,1800
2016-08-26T07:00:44.072Z,1770
2016-08-26T07:01:44.088Z,1820
2016-08-26T07:02:44.089Z,1820
2016-08-26T07:03:44.063Z,1805
2016-08-26T07:04:44.060Z,1760
2016-08-26T07:05:44.060Z,1730
2016-08-26T07:06:44.064Z,1580
2016-08-26T07:07:44.065Z,1680
2016-08-26T07:08:44.050Z,2085
2016-08-26T07:09:44.044Z,2460
2016-08-26T07:10:44.049Z,2375
2016-08-26T07:11:44.023Z,2205
2016-08-26T07:12:44.078Z,2075
2016-08-26T07:13:44.049Z,2125
2016-08-26T07:14:44.018Z,2010
2016-08-26T07:15:44.038Z,2135
2016-08-26T07:16:44.736Z,2295
2016-08-26T07:17:44.019Z,2175
2016-08-26T07:18:44.012Z,1910
2016-08-26T07:19:44.019Z,1825
2016-08-26T07:20:44.036Z,1980
2016-08-26T07:21:44.005Z,1980
2016-08-26T07:22:44.020Z,1945
2016-08-26T07:23:44.023Z,2275
2016-08-26T07:24:43.997Z,2070
2016-08-26T07:25:43.984Z,2205
2016-08-26T07:26:43.976Z,2335
2016-08-26T07:27:43.977Z,1945
2016-08-26T07:28:43.987Z,2260
2016-08-26T07:29:44.677Z,2450
2016-08-26T07:30:43.995Z,2295
2016-08-26T07:31:43.957Z,2470
2016-08-26T07:32:44.000Z,2245
2016-08-26T07:33:43.980Z,2260
2016-08-26T07:34:43.973Z,2205
2016-08-26T07:35:43.962Z,2200
2016-08-26T07:36:43.962Z,2020
2016-08-26T07:37:43.950Z,1485
2016-08-26T07:38:43.934Z,1410
2016-08-26T07:39:43.932Z,1780
2016-08-26T07:40:43.933Z,2365
2016-08-26T07:41:43.932Z,2255
2016-08-26T07:42:44.638Z,2045
2016-08-26T07:43:43.924Z,2440
2016-08-26T07:44:43.928Z,2520
2016-08-26T07:45:43.914Z,2160
2016-08-26T07:46:43.909Z,2080
2016-08-26T07:47:43.902Z,2440
2016-08-26T07:48:43.904Z,2420
2016-08-26T07:49:43.907Z,2305
2016-08-26T07:50:43.904Z,2085
2016-08-26T07:51:43.896Z,2015
2016-08-26T07:52:43.910Z,2355
2016-08-26T07:53:43.892Z,2445
2016-08-26T07:54:43.880Z,2605
2016-08-26T07:55:43.917Z,2730
2016-08-26T07:56:43.893Z,2445
2016-08-26T07:57:43.878Z,2715
2016-08-26T07:58:43.898Z,3375
2016-08-26T07:59:43.880Z,3710
2016-08-26T08:00:43.851Z,2665
2016-08-26T08:01:43.866Z,2020
2016-08-26T08:02:43.878Z,1970
2016-08-26T08:03:43.884Z,1930
2016-08-26T08:04:43.891Z,2015
2016-08-26T08:05:43.855Z,2515
2016-08-26T08:06:43.849Z,2770
2016-08-26T08:07:43.872Z,2840
2016-08-26T08:08:43.865Z,3150
2016-08-26T08:09:43.882Z,3110
2016-08-26T08:10:43.864Z,2475
2016-08-26T08:11:43.871Z,2155
2016-08-26T08:12:43.912Z,2310
2016-08-26T08:13:43.883Z,3235
2016-08-26T08:14:43.841Z,3475
2016-08-26T08:15:43.856Z,3170
2016-08-26T08:16:43.853Z,3170
2016-08-26T08:17:43.847Z,3135
2016-08-26T08:18:43.862Z,3245
2016-08-26T08:19:43.849Z,2990
2016-08-26T08:20:43.856Z,2795
2016-08-26T08:21:43.825Z,3145
2016-08-26T08:22:43.810Z,3525
2016-08-26T08:23:43.827Z,3835
2016-08-26T08:24:43.829Z,3545
2016-08-26T08:25:43.833Z,3300
2016-08-26T08:26:43.842Z,3700
2016-08-26T08:27:43.867Z,3380
2016-08-26T08:28:43.874Z,2925
2016-08-26T08:29:43.825Z,3030
2016-08-26T08:30:43.844Z,3350
2016-08-26T08:31:43.818Z,3075
2016-08-26T08:32:43.822Z,3050
2016-08-26T08:33:43.849Z,3365
2016-08-26T08:34:43.846Z,3260
2016-08-26T08:35:43.855Z,3040
2016-08-26T08:36:43.799Z,3200
2016-08-26T08:37:43.818Z,3115
2016-08-26T08:38:43.815Z,3040
2016-08-26T08:39:43.829Z,3195
2016-08-26T08:40:43.820Z,3325
2016-08-26T08:41:43.857Z,3475
2016-08-26T08:42:43.830Z,3035
2016-08-26T08:43:43.820Z,2495
2016-08-26T08:44:43.864Z,2315
2016-08-26T08:45:43.996Z,2855
2016-08-26T08:46:43.828Z,2750
2016-08-26T08:47:43.856Z,2470
2016-08-26T08:48:43.818Z,2675
2016-08-26T08:49:43.885Z,3085
2016-08-26T08:50:43.835Z,3140
2016-08-26T08:51:43.830Z,2760
2016-08-26T08:52:43.846Z,2795
2016-08-26T08:53:43.845Z,2980
2016-08-26T08:54:44.564Z,3085
2016-08-26T08:55:43.852Z,3045
2016-08-26T08:56:43.859Z,3210
2016-08-26T08:57:43.852Z,3300
2016-08-26T08:58:43.856Z,3210
2016-08-26T08:59:43.841Z,3170
2016-08-26T09:00:43.847Z,3200
2016-08-26T09:01:43.876Z,3180
2016-08-26T09:02:43.846Z,3160
2016-08-26T09:03:43.854Z,3120
2016-08-26T09:04:43.827Z,3190
2016-08-26T09:05:43.836Z,3330
2016-08-26T09:06:43.854Z,3370
2016-08-26T09:07:43.834Z,3315
2016-08-26T09:08:43.842Z,3475
2016-08-26T09:09:43.843Z,3205
2016-08-26T09:10:43.827Z,3400
2016-08-26T09:11:43.843Z,4035
2016-08-26T09:12:43.865Z,3425
2016-08-26T09:13:43.832Z,3125
2016-08-26T09:14:43.851Z,3305
2016-08-26T09:15:43.817Z,3365
2016-08-26T09:16:43.831Z,3515
2016-08-26T09:17:43.844Z,3435
2016-08-26T09:18:43.848Z,3670
2016-08-26T09:19:43.875Z,3880
2016-08-26T09:20:43.854Z,3425
2016-08-26T09:21:43.879Z,3505
2016-08-26T09:22:43.870Z,3990
2016-08-26T09:23:43.842Z,3545
2016-08-26T09:24:43.836Z,3380
2016-08-26T09:25:43.856Z,3305
2016-08-26T09:26:43.850Z,3295
2016-08-26T09:27:43.875Z,3640
2016-08-26T09:28:43.848Z,4010
2016-08-26T09:29:43.876Z,4050
2016-08-26T09:30:43.873Z,4355
2016-08-26T09:31:43.852Z,4405
2016-08-26T09:32:43.891Z,3970
2016-08-26T09:33:43.880Z,4345
2016-08-26T09:34:43.869Z,3815
2016-08-26T09:35:43.859Z,3435
2016-08-26T09:36:43.877Z,3500
2016-08-26T09:37:43.866Z,3445
2016-08-26T09:38:43.879Z,3135
2016-08-26T09:39:43.872Z,4035
2016-08-26T09:40:43.877Z,4515
2016-08-26T09:41:43.856Z,3835
2016-08-26T09:42:43.865Z,3765
2016-08-26T09:43:43.907Z,3455
2016-08-26T09:44:43.878Z,3075
2016-08-26T09:45:43.871Z,3410
2016-08-26T09:46:43.897Z,3625
2016-08-26T09:47:44.598Z,3215
2016-08-26T09:48:43.903Z,3300
2016-08-26T09:49:43.894Z,3720
2016-08-26T09:50:43.900Z,2800
2016-08-26T09:51:43.885Z,2535
2016-08-26T09:52:43.872Z,3530
2016-08-26T09:53:43.873Z,3535
2016-08-26T09:54:43.922Z,3470
2016-08-26T09:55:43.905Z,4165
2016-08-26T09:56:43.886Z,3435
2016-08-26T09:57:43.907Z,2650
2016-08-26T09:58:43.876Z,3010
2016-08-26T09:59:43.912Z,3560
2016-08-26T10:00:43.917Z,4175
2016-08-26T10:01:43.905Z,3875
2016-08-26T10:02:43.898Z,2650
2016-08-26T10:03:43.905Z,3205
2016-08-26T10:04:43.884Z,3850
2016-08-26T10:05:43.904Z,3600
2016-08-26T10:06:43.897Z,4210
2016-08-26T10:07:43.885Z,4415
2016-08-26T10:08:43.905Z,3450
2016-08-26T10:09:43.905Z,3355
2016-08-26T10:10:43.924Z,4130
2016-08-26T10:11:43.907Z,3885
2016-08-26T10:12:43.938Z,3215
2016-08-26T10:13:43.934Z,3615
2016-08-26T10:14:43.907Z,3625
2016-08-26T10:15:43.909Z,3425
2016-08-26T10:16:43.900Z,4190
2016-08-26T10:17:43.898Z,3910
2016-08-26T10:18:43.896Z,3170
2016-08-26T10:19:43.948Z,3605
2016-08-26T10:20:43.901Z,4050
2016-08-26T10:21:43.916Z,3530
2016-08-26T10:22:43.905Z,3890
2016-08-26T10:23:43.925Z,4065
2016-08-26T10:24:43.907Z,3455
2016-08-26T10:25:43.899Z,3055
2016-08-26T10:26:43.887Z,3310
2016-08-26T10:27:43.907Z,3660
2016-08-26T10:28:43.950Z,3485
2016-08-26T10:29:43.956Z,3695
2016-08-26T10:30:43.914Z,3955
2016-08-26T10:31:43.912Z,3965
2016-08-26T10:32:43.923Z,3640
2016-08-26T10:33:43.918Z,3875
2016-08-26T10:34:44.605Z,4440
2016-08-26T10:35:43.950Z,3885
2016-08-26T10:36:43.937Z,3620
2016-08-26T10:37:43.905Z,4240
2016-08-26T10:38:43.911Z,4015
2016-08-26T10:39:43.939Z,4025
2016-08-26T10:40:43.932Z,4570
2016-08-26T10:41:43.922Z,4550
2016-08-26T10:42:43.900Z,4470
2016-08-26T10:43:43.954Z,3985
2016-08-26T10:44:43.935Z,3910
2016-08-26T10:45:43.957Z,3625
2016-08-26T10:46:43.950Z,3505
2016-08-26T10:47:43.923Z,4140
2016-08-26T10:48:43.944Z,4075
2016-08-26T10:49:43.942Z,3690
2016-08-26T10:50:43.966Z,3735
2016-08-26T10:51:43.951Z,3660
2016-08-26T10:52:43.934Z,3485
2016-08-26T10:53:43.923Z,3920
2016-08-26T10:54:43.947Z,4660
2016-08-26T10:55:43.941Z,4490
2016-08-26T10:56:43.941Z,3600
2016-08-26T10:57:43.921Z,3890
2016-08-26T10:58:43.930Z,4115
2016-08-26T10:59:43.944Z,4890
2016-08-26T11:00:43.950Z,4785
2016-08-26T11:01:43.954Z,3720
2016-08-26T11:02:43.953Z,4085
2016-08-26T11:03:43.931Z,4290
2016-08-26T11:04:43.948Z,4185
2016-08-26T11:05:43.965Z,4595
2016-08-26T11:06:43.941Z,4390
2016-08-26T11:07:43.939Z,4115
2016-08-26T11:08:43.938Z,4305
2016-08-26T11:09:43.965Z,5150
2016-08-26T11:10:43.980Z,5005
2016-08-26T11:11:43.930Z,4445
2016-08-26T11:12:44.026Z,4500
2016-08-26T11:13:43.980Z,4345
2016-08-26T11:14:43.978Z,4255
2016-08-26T11:15:43.983Z,4155
2016-08-26T11:16:43.961Z,4480
2016-08-26T11:17:43.980Z,4510
2016-08-26T11:18:43.974Z,4200
2016-08-26T11:19:43.998Z,4145
2016-08-26T11:20:43.973Z,4020
2016-08-26T11:21:43.990Z,3600
2016-08-26T11:22:43.995Z,3565
2016-08-26T11:23:43.981Z,3770
2016-08-26T11:24:43.978Z,3985
2016-08-26T11:25:43.964Z,3055
2016-08-26T11:26:43.984Z,3655
2016-08-26T11:27:43.968Z,4260
2016-08-26T11:28:43.970Z,4180
2016-08-26T11:29:43.988Z,3845
2016-08-26T11:30:44.697Z,4630
2016-08-26T11:31:43.994Z,4875
2016-08-26T11:32:43.982Z,4415
2016-08-26T11:33:43.997Z,4790
2016-08-26T11:34:43.964Z,4760
2016-08-26T11:35:44.033Z,4645
2016-08-26T11:36:44.011Z,4550
2016-08-26T11:37:43.997Z,4410
2016-08-26T11:38:43.997Z,4425
2016-08-26T11:39:44.004Z,4005
2016-08-26T11:40:44.021Z,3990
2016-08-26T11:41:44.005Z,3985
2016-08-26T11:42:44.035Z,3700
2016-08-26T11:43:44.024Z,3645
2016-08-26T11:44:44.048Z,3305
2016-08-26T11:45:44.021Z,3105
2016-08-26T11:46:44.009Z,3750
2016-08-26T11:47:44.004Z,4045
2016-08-26T11:48:44.014Z,4500
2016-08-26T11:49:44.017Z,4500
2016-08-26T11:50:44.027Z,4295
2016-08-26T11:51:44.005Z,4540
2016-08-26T11:52:43.998Z,4750
2016-08-26T11:53:44.002Z,5015
2016-08-26T11:54:44.005Z,4685
2016-08-26T11:55:44.718Z,4435
2016-08-26T11:56:44.013Z,4675
2016-08-26T11:57:44.038Z,5545
2016-08-26T11:58:44.017Z,5665
2016-08-26T11:59:44.026Z,4710
2016-08-26T12:00:43.999Z,4990
2016-08-26T12:01:44.052Z,5630
2016-08-26T12:02:44.023Z,5860
2016-08-26T12:03:44.020Z,5295
2016-08-26T12:04:44.726Z,5220
2016-08-26T12:05:44.056Z,5425
2016-08-26T12:06:44.050Z,4495
2016-08-26T12:07:44.015Z,4870
2016-08-26T12:08:44.011Z,4530
2016-08-26T12:09:44.031Z,4570
2016-08-26T12:10:44.064Z,4825
2016-08-26T12:11:44.033Z,4080
2016-08-26T12:12:44.044Z,4880
2016-08-26T12:13:44.196Z,4765
2016-08-26T12:14:44.047Z,4195
2016-08-26T12:15:44.042Z,4865
2016-08-26T12:16:44.052Z,4620
2016-08-26T12:17:44.053Z,4595
2016-08-26T12:18:44.052Z,5270
2016-08-26T12:19:44.032Z,4730
2016-08-26T12:20:44.065Z,4470
2016-08-26T12:21:44.071Z,3390
2016-08-26T12:22:44.071Z,4255
2016-08-26T12:23:44.054Z,3260
2016-08-26T12:24:44.029Z,3945
2016-08-26T12:25:44.075Z,4250
2016-08-26T12:26:44.059Z,4175
2016-08-26T12:27:44.052Z,4730
2016-08-26T12:28:44.083Z,5265
2016-08-26T12:29:44.047Z,4965
2016-08-26T12:30:44.066Z,4555
2016-08-26T12:31:44.073Z,3985
2016-08-26T12:32:44.094Z,4290
2016-08-26T12:33:44.078Z,5025
2016-08-26T12:34:44.057Z,5560
2016-08-26T12:35:44.057Z,5340
2016-08-26T12:36:44.076Z,4815
2016-08-26T12:37:44.091Z,4950
2016-08-26T12:38:44.069Z,5325
2016-08-26T12:39:44.070Z,5095
2016-08-26T12:40:44.090Z,4150
2016-08-26T12:41:44.084Z,4010
2016-08-26T12:42:44.095Z,4995
2016-08-26T12:43:44.817Z,5005
2016-08-26T12:44:44.074Z,4220
2016-08-26T12:45:44.113Z,2480
2016-08-26T12:46:44.100Z,1460
2016-08-26T12:47:44.096Z,1225
2016-08-26T12:48:44.087Z,1150
2016-08-26T12:49:44.102Z,1765
2016-08-26T12:50:44.126Z,3705
2016-08-26T12:51:44.808Z,2010
2016-08-26T12:52:44.120Z,4370
2016-08-26T12:53:44.076Z,1760
2016-08-26T12:54:44.085Z,3950
2016-08-26T12:55:44.088Z,4530
2016-08-26T12:56:44.082Z,4395
2016-08-26T12:57:44.119Z,4165
2016-08-26T12:58:44.120Z,4175
2016-08-26T12:59:44.101Z,4545
2016-08-26T13:00:44.112Z,1460
2016-08-26T13:01:44.104Z,2430
2016-08-26T13:02:44.134Z,4200
2016-08-26T13:03:44.101Z,3970
2016-08-26T13:04:44.122Z,3910
2016-08-26T13:05:44.087Z,4245
2016-08-26T13:06:44.132Z,4450
2016-08-26T13:07:44.100Z,4270
2016-08-26T13:08:44.083Z,4020
2016-08-26T13:09:44.097Z,4000
2016-08-26T13:10:44.816Z,4235
2016-08-26T13:11:44.821Z,4035
2016-08-26T13:12:44.105Z,3805
2016-08-26T13:13:44.303Z,3940
2016-08-26T13:14:44.128Z,4055
2016-08-26T13:15:44.110Z,1375
2016-08-26T13:16:44.099Z,1555
2016-08-26T13:17:44.116Z,3905
2016-08-26T13:18:44.124Z,4100
2016-08-26T13:19:44.117Z,4190
2016-08-26T13:20:44.129Z,4215
2016-08-26T13:21:44.134Z,4240
2016-08-26T13:22:44.106Z,4235
2016-08-26T13:23:44.111Z,4200
2016-08-26T13:24:44.108Z,4460
2016-08-26T13:25:44.115Z,4710
2016-08-26T13:26:44.128Z,4635
2016-08-26T13:27:44.124Z,4215
2016-08-26T13:28:44.116Z,3970
2016-08-26T13:29:44.110Z,3690
2016-08-26T13:30:44.156Z,3710
2016-08-26T13:31:44.122Z,3840
2016-08-26T13:32:44.139Z,3560
2016-08-26T13:33:44.102Z,1895
2016-08-26T13:34:44.136Z,3400
2016-08-26T13:35:44.113Z,3575
2016-08-26T13:36:44.105Z,3530
2016-08-26T13:37:44.118Z,1590
2016-08-26T13:38:44.124Z,1175
2016-08-26T13:39:44.137Z,1095
2016-08-26T13:40:44.130Z,1060
2016-08-26T13:41:44.169Z,1035
2016-08-26T13:42:44.138Z,1230
2016-08-26T13:43:44.117Z,3495
2016-08-26T13:44:44.825Z,3560
2016-08-26T13:45:44.157Z,3005
2016-08-26T13:46:44.139Z,1250
2016-08-26T13:47:44.159Z,3695
2016-08-26T13:48:44.160Z,3340